Time;durP1;ratioP1;P1;durP2;ratioP2;P2;SDS_P1;SDS_P2;PMS_P1;PMS_P2;Temp;Humidity;BMP_temperature;BMP_pressure;BME280_temperature;BME280_humidity;BME280_pressure;Samples;Min_cycle;Max_cycle;Signal;HPM_P1;HPM_P2
2022/01/21 00:01:44;;;;;;;3.30;2.00;;;11.30;99.90;;;;;;5114107;28;20047;-60
2022/01/21 00:04:12;;;;;;;6.90;3.15;;;11.30;99.90;;;;;;5116539;27;20039;-61
2022/01/21 00:06:40;;;;;;;5.25;2.08;;;11.30;99.90;;;;;;5131176;27;20046;-60
2022/01/21 00:09:08;;;;;;;4.15;2.55;;;11.30;99.90;;;;;;5118006;27;20181;-60
2022/01/21 00:11:39;;;;;;;4.05;2.10;;;11.30;99.90;;;;;;5132084;27;20051;-60
2022/01/21 00:14:07;;;;;;;3.15;2.15;;;11.30;99.90;;;;;;5116258;27;20127;-60
2022/01/21 00:16:39;;;;;;;4.25;1.77;;;11.30;99.90;;;;;;5116282;27;20450;-60
2022/01/21 00:19:12;;;;;;;4.10;2.42;;;11.30;99.90;;;;;;5134894;27;20066;-60
2022/01/21 00:30:11;;;;;;;4.28;2.38;;;11.20;99.90;;;;;;5097348;28;20039;-60
2022/01/21 00:32:40;;;;;;;4.43;2.80;;;11.10;99.90;;;;;;5124687;27;20439;-60
2022/01/21 00:35:10;;;;;;;16.13;3.75;;;11.00;99.90;;;;;;5117820;27;20050;-60
2022/01/21 00:37:37;;;;;;;5.25;2.08;;;11.10;99.90;;;;;;5116399;27;20047;-60
2022/01/21 00:40:07;;;;;;;3.45;2.45;;;11.10;99.90;;;;;;5127650;27;20462;-60
2022/01/21 00:45:11;;;;;;;4.35;2.28;;;11.10;99.90;;;;;;5117527;27;20493;-60
2022/01/21 00:47:40;;;;;;;3.60;2.42;;;11.10;99.90;;;;;;5114671;27;20043;-60
2022/01/21 00:50:09;;;;;;;5.85;2.30;;;11.10;99.90;;;;;;5135640;27;20035;-60
2022/01/21 00:52:36;;;;;;;6.40;2.28;;;11.10;99.90;;;;;;5103821;27;20043;-60
2022/01/21 00:55:06;;;;;;;5.05;2.85;;;11.20;99.90;;;;;;5135897;27;20039;-59
2022/01/21 00:57:34;;;;;;;3.28;2.15;;;11.20;99.90;;;;;;5117839;27;20404;-60
2022/01/21 01:00:04;;;;;;;3.67;2.22;;;11.20;99.90;;;;;;5118371;27;20044;-60
2022/01/21 01:02:33;;;;;;;5.45;2.38;;;11.20;99.90;;;;;;5136869;27;20055;-60
2022/01/21 01:05:00;;;;;;;6.65;2.80;;;11.20;99.90;;;;;;5118515;27;20045;-60
2022/01/21 01:07:28;;;;;;;6.60;2.38;;;11.20;99.90;;;;;;5118626;27;20501;-60
2022/01/21 01:09:57;;;;;;;4.93;2.50;;;11.20;99.90;;;;;;5101612;27;20476;-60
2022/01/21 01:20:32;;;;;;;4.63;3.10;;;11.30;99.90;;;;;;5101438;27;20058;-60
2022/01/21 01:23:19;;;;;;;3.38;1.85;;;11.30;99.90;;;;;;5118129;27;20059;-60
2022/01/21 01:28:34;;;;;;;4.30;2.05;;;11.30;99.90;;;;;;5136537;27;20060;-60
2022/01/21 01:31:01;;;;;;;3.92;2.15;;;11.30;99.90;;;;;;5136259;27;20042;-60
2022/01/21 01:33:36;;;;;;;5.63;2.75;;;11.30;99.90;;;;;;5136240;27;20621;-60
2022/01/21 01:36:06;;;;;;;6.47;3.03;;;11.30;99.90;;;;;;5136118;27;20062;-60
2022/01/21 01:41:08;;;;;;;5.70;2.13;;;11.30;99.90;;;;;;5135842;27;20039;-60
2022/01/21 01:49:34;;;;;;;;;;;11.30;99.90;;;;;;5118002;27;20137;-60
2022/01/21 01:52:04;;;;;;;6.07;2.38;;;11.30;99.90;;;;;;5135893;27;19965;-60
2022/01/21 01:54:35;;;;;;;13.27;2.95;;;11.30;99.90;;;;;;5136077;27;20035;-60
2022/01/21 01:57:03;;;;;;;5.38;2.53;;;11.30;99.90;;;;;;5135846;27;20393;-59
2022/01/21 01:59:31;;;;;;;4.13;2.35;;;11.30;99.90;;;;;;5117528;27;20427;-60
2022/01/21 02:02:06;;;;;;;8.35;3.67;;;11.30;99.90;;;;;;5100388;27;20134;-60
2022/01/21 02:04:34;;;;;;;6.95;2.45;;;11.30;99.90;;;;;;5117173;27;20489;-60
2022/01/21 02:07:02;;;;;;;4.95;2.30;;;11.30;99.90;;;;;;5117227;27;20039;-60
2022/01/21 02:09:31;;;;;;;4.75;2.88;;;11.30;99.90;;;;;;5117240;27;20138;-60
2022/01/21 02:11:59;;;;;;;3.75;2.28;;;11.30;99.90;;;;;;5135535;27;20051;-60
2022/01/21 02:14:43;;;;;;;6.13;2.45;;;11.20;99.90;;;;;;5135831;27;20055;-60
2022/01/21 02:21:27;;;;;;;7.40;2.65;;;11.20;99.90;;;;;;5134191;27;20043;-60
2022/01/21 02:22:49;;;;;;;4.10;2.38;;;11.20;99.90;;;;;;5116977;27;20047;-60
2022/01/21 02:25:19;;;;;;;2.78;2.17;;;11.20;99.90;;;;;;5134120;27;20051;-60
2022/01/21 02:27:53;;;;;;;3.92;2.70;;;11.20;99.90;;;;;;5117013;27;20469;-60
2022/01/21 02:30:22;;;;;;;6.35;2.00;;;11.20;99.90;;;;;;5116770;27;20043;-60
2022/01/21 02:32:55;;;;;;;6.05;2.97;;;11.10;99.90;;;;;;5100094;27;20051;-60
2022/01/21 02:35:25;;;;;;;5.22;2.50;;;11.10;99.90;;;;;;5117038;27;20039;-60
2022/01/21 02:37:52;;;;;;;5.25;2.42;;;11.10;99.90;;;;;;5116827;27;20035;-60
2022/01/21 02:40:21;;;;;;;5.20;2.10;;;11.10;99.90;;;;;;5116752;27;20047;-60
2022/01/21 02:42:48;;;;;;;7.82;3.08;;;11.10;99.90;;;;;;5134730;27;20043;-60
2022/01/21 02:45:16;;;;;;;6.15;2.55;;;11.10;99.90;;;;;;5099850;27;20058;-60
2022/01/21 02:47:44;;;;;;;4.63;2.60;;;11.20;99.90;;;;;;5116585;27;20396;-60
2022/01/21 02:50:15;;;;;;;5.63;2.63;;;11.10;99.90;;;;;;5134791;27;20067;-60
2022/01/21 02:52:55;;;;;;;5.68;2.38;;;11.20;99.90;;;;;;5099593;27;20035;-60
2022/01/21 02:55:24;;;;;;;6.13;3.28;;;11.20;99.90;;;;;;5134721;27;20126;-60
2022/01/21 02:57:52;;;;;;;5.30;2.90;;;11.20;99.90;;;;;;5133868;27;20046;-60
2022/01/21 03:00:20;;;;;;;7.07;3.63;;;11.10;99.90;;;;;;5116363;27;20043;-60
2022/01/21 03:02:49;;;;;;;2.63;2.00;;;11.10;99.90;;;;;;5099841;27;20070;-60
2022/01/21 03:05:18;;;;;;;5.07;2.88;;;11.10;99.90;;;;;;5116264;27;20042;-60
2022/01/21 03:07:49;;;;;;;3.40;2.25;;;11.10;99.90;;;;;;5116403;27;20043;-60
2022/01/21 03:10:17;;;;;;;4.95;2.28;;;11.10;99.90;;;;;;5116348;28;20039;-60
2022/01/21 03:12:45;;;;;;;3.88;2.50;;;11.10;99.90;;;;;;5116418;27;20039;-60
2022/01/21 03:15:12;;;;;;;4.65;2.33;;;11.10;99.90;;;;;;5134535;27;20067;-60
2022/01/21 03:17:40;;;;;;;4.10;1.98;;;11.00;99.90;;;;;;5116174;28;20106;-60
2022/01/21 03:20:08;;;;;;;7.10;2.20;;;11.00;99.90;;;;;;5099011;28;20100;-60
2022/01/21 03:22:36;;;;;;;4.53;2.05;;;11.00;99.90;;;;;;5134460;28;20043;-60
2022/01/21 03:25:06;;;;;;;5.35;2.20;;;11.10;99.90;;;;;;5134392;28;20036;-59
2022/01/21 03:27:35;;;;;;;8.48;2.33;;;11.10;99.90;;;;;;5116465;28;20431;-59
2022/01/21 03:30:05;;;;;;;4.88;2.22;;;11.10;99.90;;;;;;5099365;28;20044;-60
2022/01/21 03:32:39;;;;;;;4.95;2.30;;;11.10;99.90;;;;;;5116132;28;20051;-60
2022/01/21 03:35:08;;;;;;;4.18;2.00;;;11.10;99.90;;;;;;5116241;28;20045;-60
2022/01/21 03:37:35;;;;;;;6.75;2.50;;;11.10;99.90;;;;;;5134309;28;20071;-60
2022/01/21 03:40:04;;;;;;;4.40;1.98;;;11.10;99.90;;;;;;5116022;28;20039;-60
2022/01/21 03:42:32;;;;;;;11.45;2.85;;;11.10;99.90;;;;;;5115676;28;20047;-60
2022/01/21 03:45:00;;;;;;;3.60;2.42;;;11.10;99.90;;;;;;5134218;28;20039;-60
2022/01/21 03:47:28;;;;;;;2.67;2.10;;;11.10;99.90;;;;;;5115681;28;20032;-60
2022/01/21 03:50:08;;;;;;;3.17;1.92;;;11.10;99.90;;;;;;5115669;28;20082;-60
2022/01/21 03:52:36;;;;;;;7.57;2.20;;;11.10;99.90;;;;;;5115980;28;20036;-60
2022/01/21 03:55:04;;;;;;;6.70;2.20;;;11.00;99.90;;;;;;5115836;28;20489;-59
2022/01/21 03:57:31;;;;;;;4.25;2.47;;;11.00;99.90;;;;;;5098646;28;20043;-60
2022/01/21 03:59:59;;;;;;;3.67;2.35;;;11.10;99.90;;;;;;5116034;28;20054;-60
2022/01/21 04:02:26;;;;;;;8.02;3.05;;;11.10;99.90;;;;;;5115416;28;20043;-60
2022/01/21 04:04:54;;;;;;;2.78;1.55;;;11.10;99.90;;;;;;5115923;28;20518;-60
2022/01/21 04:07:22;;;;;;;4.97;1.98;;;11.10;99.90;;;;;;5099393;27;20071;-60
2022/01/21 04:09:50;;;;;;;3.83;2.25;;;11.10;99.90;;;;;;5119710;27;20039;-59
2022/01/21 04:12:17;;;;;;;6.20;2.13;;;11.10;99.90;;;;;;5102430;27;20058;-60
2022/01/21 04:14:45;;;;;;;5.25;2.15;;;11.10;99.90;;;;;;5137914;27;20519;-60
2022/01/21 04:17:12;;;;;;;4.00;2.47;;;11.10;99.90;;;;;;5102480;27;20082;-60
2022/01/21 04:19:40;;;;;;;3.92;3.00;;;11.10;99.90;;;;;;5119472;27;20419;-60
2022/01/21 04:22:09;;;;;;;4.30;2.72;;;11.10;99.90;;;;;;5102107;27;20045;-60
2022/01/21 04:24:38;;;;;;;5.05;1.88;;;11.10;99.90;;;;;;5119502;27;20043;-60
2022/01/21 04:27:06;;;;;;;4.07;2.22;;;11.10;99.90;;;;;;5085563;27;20501;-60
2022/01/21 04:29:33;;;;;;;3.83;2.30;;;11.20;99.90;;;;;;5102411;27;20035;-60
2022/01/21 04:32:04;;;;;;;3.72;2.38;;;11.20;99.90;;;;;;5102186;27;20043;-60
2022/01/21 04:34:33;;;;;;;6.75;2.50;;;11.10;99.90;;;;;;5119136;27;20035;-60
2022/01/21 04:37:02;;;;;;;3.88;2.58;;;11.10;99.90;;;;;;5119193;27;20035;-60
2022/01/21 04:40:05;;;;;;;5.00;2.72;;;11.10;99.90;;;;;;5102275;27;20051;-60
2022/01/21 04:48:07;;;;;;;4.47;2.70;;;11.10;99.90;;;;;;5118776;27;20039;-60
2022/01/21 04:50:53;;;;;;;7.63;2.78;;;11.10;99.90;;;;;;5101582;27;20051;-60
2022/01/21 04:53:22;;;;;;;4.30;2.08;;;11.10;99.90;;;;;;5118750;27;20039;-60
2022/01/21 04:55:56;;;;;;;4.93;2.65;;;11.10;99.90;;;;;;5118757;27;20043;-60
2022/01/21 04:58:23;;;;;;;6.65;3.17;;;11.10;99.90;;;;;;5118520;27;20037;-60
2022/01/21 05:00:52;;;;;;;6.45;2.65;;;11.10;99.90;;;;;;5101439;27;20082;-60
2022/01/21 05:03:21;;;;;;;4.50;2.70;;;11.00;99.90;;;;;;5118296;27;20043;-60
2022/01/21 05:05:50;;;;;;;3.80;2.38;;;11.00;99.90;;;;;;5119264;27;20036;-60
2022/01/21 05:08:29;;;;;;;4.72;2.25;;;11.00;99.90;;;;;;5136822;27;20074;-60
2022/01/21 05:10:58;;;;;;;4.72;2.92;;;11.00;99.90;;;;;;5118386;27;20412;-60
2022/01/21 05:13:28;;;;;;;3.75;2.40;;;11.00;99.90;;;;;;5118383;27;20047;-60
2022/01/21 05:16:03;;;;;;;6.40;2.13;;;11.00;99.90;;;;;;5101852;27;20386;-60
2022/01/21 05:18:31;;;;;;;3.22;2.28;;;11.00;99.90;;;;;;5117915;27;20130;-60
2022/01/21 05:21:22;;;;;;;3.75;2.08;;;11.00;99.90;;;;;;5135834;27;20078;-60
2022/01/21 05:24:14;;;;;;;5.10;2.50;;;10.90;99.90;;;;;;5103965;27;20035;-60
2022/01/21 05:26:52;;;;;;;4.65;2.75;;;11.00;99.90;;;;;;5135017;27;20121;-60
2022/01/21 05:29:24;;;;;;;5.50;3.38;;;11.00;99.90;;;;;;5107549;28;20039;-61
2022/01/21 05:32:07;;;;;;;7.30;3.92;;;11.00;99.90;;;;;;5105988;27;20031;-60
2022/01/21 05:34:55;;;;;;;6.60;4.68;;;11.00;99.90;;;;;;5113496;27;20620;-60
2022/01/21 05:37:41;;;;;;;6.53;4.03;;;11.00;99.90;;;;;;5134799;27;20042;-61
2022/01/21 05:40:27;;;;;;;5.72;3.00;;;11.00;99.90;;;;;;5128315;27;20053;-59
2022/01/21 05:43:00;;;;;;;3.85;2.88;;;11.00;99.90;;;;;;5116330;27;20035;-60
2022/01/21 05:49:07;;;;;;;5.95;3.03;;;11.00;99.90;;;;;;5032355;28;20041;-60
2022/01/21 05:52:01;;;;;;;5.15;2.58;;;11.10;99.90;;;;;;5125019;27;20062;-60
2022/01/21 05:54:52;;;;;;;5.35;3.20;;;11.00;99.90;;;;;;5110944;27;20047;-61
2022/01/21 05:57:38;;;;;;;7.20;3.10;;;11.00;99.90;;;;;;5133904;27;20172;-60
2022/01/21 06:00:06;;;;;;;13.32;5.53;;;11.00;99.90;;;;;;5117172;27;20043;-59
2022/01/21 06:02:35;;;;;;;6.90;3.38;;;11.00;99.90;;;;;;5116976;27;20112;-60
2022/01/21 06:05:04;;;;;;;4.55;2.95;;;10.90;99.90;;;;;;5117374;27;20043;-60
2022/01/21 06:07:32;;;;;;;4.88;3.22;;;11.00;99.90;;;;;;5117062;27;20039;-60
2022/01/21 06:10:03;;;;;;;6.60;3.22;;;11.00;99.90;;;;;;5100704;27;20035;-59
2022/01/21 06:12:31;;;;;;;4.72;3.50;;;11.00;99.90;;;;;;5135472;27;20043;-60
2022/01/21 06:14:58;;;;;;;6.22;2.97;;;11.00;99.90;;;;;;5135275;27;20047;-60
2022/01/21 06:17:26;;;;;;;6.90;3.25;;;11.00;99.90;;;;;;5117091;27;20062;-60
2022/01/21 06:19:53;;;;;;;10.65;4.47;;;10.90;99.90;;;;;;5135160;27;20134;-60
2022/01/21 06:22:21;;;;;;;6.88;3.70;;;11.00;99.90;;;;;;5135317;27;20599;-60
2022/01/21 06:24:51;;;;;;;5.70;3.75;;;10.90;99.90;;;;;;5116474;27;20043;-60
2022/01/21 06:27:25;;;;;;;6.07;3.85;;;10.90;99.90;;;;;;5135038;27;20126;-60
2022/01/21 06:29:55;;;;;;;8.73;4.90;;;10.90;99.90;;;;;;5135561;27;20100;-60
2022/01/21 06:32:25;;;;;;;7.82;4.72;;;10.90;99.90;;;;;;5099681;27;20531;-60
2022/01/21 06:34:54;;;;;;;7.28;3.47;;;10.90;99.90;;;;;;5116688;27;20046;-60
2022/01/21 06:37:21;;;;;;;7.93;3.60;;;10.90;99.90;;;;;;5134789;27;20047;-60
2022/01/21 06:39:49;;;;;;;7.13;3.13;;;10.90;99.90;;;;;;5134740;27;20741;-60
2022/01/21 06:42:22;;;;;;;4.07;3.22;;;10.80;99.90;;;;;;5116242;27;20056;-60
2022/01/21 06:44:50;;;;;;;4.60;3.63;;;10.90;99.90;;;;;;5134498;27;20049;-60
2022/01/21 06:47:18;;;;;;;5.38;2.35;;;10.80;99.90;;;;;;5134595;27;20035;-60
2022/01/21 06:49:46;;;;;;;5.32;3.13;;;10.90;99.90;;;;;;5134772;27;20077;-60
2022/01/21 06:52:14;;;;;;;7.15;3.20;;;10.80;99.90;;;;;;5134932;27;20067;-60
2022/01/21 06:54:42;;;;;;;4.18;2.67;;;10.90;99.90;;;;;;5134651;27;20560;-60
2022/01/21 06:57:10;;;;;;;6.60;3.85;;;10.90;99.90;;;;;;5134983;27;20388;-59
2022/01/21 06:59:37;;;;;;;5.20;3.72;;;10.90;99.90;;;;;;5116196;28;20401;-60
2022/01/21 07:02:05;;;;;;;5.95;3.95;;;10.90;99.90;;;;;;5115997;27;20493;-60
2022/01/21 07:04:33;;;;;;;7.47;5.68;;;10.90;99.90;;;;;;5115981;27;20047;-60
2022/01/21 07:07:02;;;;;;;13.65;7.70;;;10.90;99.90;;;;;;5099236;27;20366;-60
2022/01/21 07:09:30;;;;;;;21.90;10.40;;;10.90;99.90;;;;;;5134837;27;20061;-59
2022/01/21 07:11:57;;;;;;;15.48;9.10;;;11.00;99.90;;;;;;5134690;27;20086;-60
2022/01/21 07:14:25;;;;;;;12.07;7.57;;;11.00;99.90;;;;;;5134528;27;20509;-60
2022/01/21 07:16:53;;;;;;;10.88;5.70;;;11.00;99.90;;;;;;5134687;27;20050;-60
2022/01/21 07:19:21;;;;;;;8.93;5.30;;;11.00;99.90;;;;;;5134670;28;20050;-60
2022/01/21 07:21:48;;;;;;;6.55;3.63;;;11.00;99.90;;;;;;5134497;28;20577;-60
2022/01/21 07:24:16;;;;;;;13.10;4.50;;;11.10;99.90;;;;;;5115968;28;20092;-60
2022/01/21 07:26:44;;;;;;;6.57;4.07;;;11.10;99.90;;;;;;5134354;28;20051;-60
2022/01/21 07:29:12;;;;;;;9.02;4.20;;;11.10;99.90;;;;;;5116191;28;20039;-60
2022/01/21 07:31:39;;;;;;;8.65;5.35;;;11.20;99.90;;;;;;5134500;28;20035;-60
2022/01/21 07:34:07;;;;;;;10.32;5.13;;;11.20;99.90;;;;;;5134440;28;20051;-60
2022/01/21 07:36:35;;;;;;;9.90;6.10;;;11.20;99.90;;;;;;5134507;28;20103;-60
2022/01/21 07:39:04;;;;;;;12.05;6.55;;;11.20;99.90;;;;;;5116227;28;20043;-60
2022/01/21 07:41:32;;;;;;;18.50;7.68;;;11.30;99.90;;;;;;5134060;28;20082;-60
2022/01/21 07:43:59;;;;;;;14.93;7.20;;;11.30;99.90;;;;;;5137316;27;20071;-59
2022/01/21 07:46:27;;;;;;;12.80;7.15;;;11.30;99.90;;;;;;5138451;27;20039;-60
2022/01/21 07:48:56;;;;;;;11.57;6.82;;;11.30;99.90;;;;;;5138247;27;20059;-60
2022/01/21 07:51:24;;;;;;;9.63;5.45;;;11.30;99.90;;;;;;5120159;27;20047;-60
2022/01/21 07:53:52;;;;;;;8.55;4.82;;;11.40;99.90;;;;;;5120063;27;20035;-60
2022/01/21 07:56:19;;;;;;;9.25;5.00;;;11.40;99.90;;;;;;5138047;27;20045;-60
2022/01/21 07:58:47;;;;;;;9.05;5.13;;;11.40;99.90;;;;;;5119797;27;20126;-60
2022/01/21 08:01:14;;;;;;;8.80;5.03;;;11.50;99.90;;;;;;5137775;27;20046;-60
2022/01/21 08:03:42;;;;;;;7.45;4.55;;;11.60;99.90;;;;;;5119521;27;20143;-60
2022/01/21 08:06:10;;;;;;;8.25;4.68;;;11.60;99.90;;;;;;5119550;27;20047;-60
2022/01/21 08:08:37;;;;;;;8.38;4.22;;;11.70;99.90;;;;;;5137289;27;20050;-60
2022/01/21 08:11:05;;;;;;;8.57;4.22;;;11.80;99.90;;;;;;5137183;27;20043;-60
2022/01/21 08:13:33;;;;;;;8.98;5.32;;;11.80;99.90;;;;;;5137576;27;20477;-60
2022/01/21 08:16:00;;;;;;;12.50;6.03;;;11.90;99.90;;;;;;5119558;27;20053;-60
2022/01/21 08:18:28;;;;;;;12.85;5.68;;;11.90;99.90;;;;;;5137746;27;20079;-60
2022/01/21 08:20:56;;;;;;;8.55;5.53;;;12.00;99.90;;;;;;5137544;27;20044;-60
2022/01/21 08:23:23;;;;;;;8.60;4.63;;;12.00;99.90;;;;;;5137405;27;20047;-60
2022/01/21 08:25:51;;;;;;;10.45;6.47;;;12.00;99.90;;;;;;5137459;27;20439;-60
2022/01/21 08:28:19;;;;;;;9.18;6.45;;;12.00;99.90;;;;;;5137461;27;20393;-60
2022/01/21 08:30:46;;;;;;;9.07;5.47;;;12.00;99.90;;;;;;5137583;27;20423;-60
2022/01/21 08:33:14;;;;;;;9.07;5.63;;;12.10;99.90;;;;;;5137604;27;20042;-60
2022/01/21 08:35:44;;;;;;;10.35;5.32;;;12.20;99.90;;;;;;5137460;27;20497;-60
2022/01/21 08:38:12;;;;;;;10.70;6.57;;;12.20;99.90;;;;;;5119139;27;20435;-60
2022/01/21 08:40:40;;;;;;;8.98;6.22;;;12.20;99.90;;;;;;5137152;27;20061;-60
2022/01/21 08:43:08;;;;;;;6.80;5.47;;;12.20;99.90;;;;;;5119173;27;20063;-60
2022/01/21 08:45:35;;;;;;;10.57;6.05;;;12.20;99.90;;;;;;5137118;27;20039;-60
2022/01/21 08:48:04;;;;;;;7.40;4.95;;;12.20;99.90;;;;;;5137331;27;20107;-60
2022/01/21 08:50:32;;;;;;;7.80;5.28;;;12.10;99.90;;;;;;5137273;27;20042;-60
2022/01/21 08:55:46;;;;;;;10.45;6.72;;;12.10;99.90;;;;;;5117201;27;20054;-60
2022/01/21 08:58:13;;;;;;;7.78;5.50;;;12.10;99.90;;;;;;5136746;27;20066;-60
2022/01/21 09:00:41;;;;;;;6.45;4.53;;;12.20;99.90;;;;;;5118433;27;20094;-60
2022/01/21 09:03:09;;;;;;;9.70;5.75;;;12.20;99.90;;;;;;5118016;27;20046;-60
2022/01/21 09:05:36;;;;;;;13.77;6.50;;;12.20;99.90;;;;;;5118403;27;20386;-60
2022/01/21 09:08:04;;;;;;;11.48;5.30;;;12.20;99.90;;;;;;5136556;27;20394;-60
2022/01/21 09:10:32;;;;;;;8.65;5.47;;;12.20;99.90;;;;;;5117998;27;20051;-60
2022/01/21 09:12:59;;;;;;;9.45;6.13;;;12.20;99.90;;;;;;5118003;27;20043;-60
2022/01/21 09:15:28;;;;;;;6.63;3.85;;;12.30;99.90;;;;;;5136452;27;20046;-60
2022/01/21 09:18:03;;;;;;;10.35;4.80;;;12.30;99.90;;;;;;5136120;27;20075;-60
2022/01/21 09:20:33;;;;;;;5.57;3.60;;;12.30;99.90;;;;;;5117357;27;20464;-60
2022/01/21 09:23:01;;;;;;;9.43;5.07;;;12.30;99.90;;;;;;5136041;27;20104;-60
2022/01/21 09:25:29;;;;;;;6.55;4.80;;;12.40;99.70;;;;;;5135985;27;20461;-60
2022/01/21 09:27:58;;;;;;;5.13;3.28;;;12.40;99.70;;;;;;5136409;27;20048;-60
2022/01/21 09:30:26;;;;;;;7.55;4.07;;;12.50;99.70;;;;;;5136202;27;20066;-60
2022/01/21 09:32:55;;;;;;;8.75;5.35;;;12.40;99.70;;;;;;5136328;27;20053;-60
2022/01/21 09:35:23;;;;;;;9.93;6.18;;;12.50;99.80;;;;;;5136332;27;20092;-60
2022/01/21 09:37:51;;;;;;;11.93;5.95;;;12.50;99.90;;;;;;5136402;27;20393;-60
2022/01/21 09:40:38;;;;;;;8.00;5.25;;;12.50;99.90;;;;;;5135844;27;20039;-60
2022/01/21 09:43:07;;;;;;;9.65;4.55;;;12.50;99.60;;;;;;5136221;27;20031;-60
2022/01/21 09:45:36;;;;;;;8.68;4.35;;;12.60;99.70;;;;;;5135727;27;20064;-60
2022/01/21 09:48:06;;;;;;;5.95;3.80;;;12.70;99.50;;;;;;5117951;27;20035;-60
2022/01/21 09:50:34;;;;;;;6.70;4.40;;;12.80;99.30;;;;;;5136033;27;20044;-60
2022/01/21 09:53:02;;;;;;;6.70;4.78;;;12.80;99.00;;;;;;5135659;27;20042;-60
2022/01/21 09:55:30;;;;;;;7.45;4.47;;;12.90;98.80;;;;;;5135543;27;20100;-60
2022/01/21 09:57:57;;;;;;;7.18;4.38;;;12.90;98.30;;;;;;5100271;27;20035;-61
2022/01/21 10:00:27;;;;;;;9.80;5.80;;;13.00;98.10;;;;;;5116093;27;20461;-60
2022/01/21 10:02:57;;;;;;;9.23;5.22;;;13.10;98.00;;;;;;5135936;27;20046;-60
2022/01/21 10:05:24;;;;;;;8.88;6.15;;;13.20;97.90;;;;;;5135102;27;20039;-60
2022/01/21 10:07:53;;;;;;;13.88;6.53;;;13.20;97.60;;;;;;5135687;27;20043;-60
2022/01/21 10:10:20;;;;;;;14.57;6.85;;;13.30;97.50;;;;;;5135589;27;20066;-60
2022/01/21 10:12:50;;;;;;;9.23;6.47;;;13.40;97.20;;;;;;5135548;27;20389;-60
2022/01/21 10:15:18;;;;;;;9.20;4.72;;;13.40;97.10;;;;;;5135739;27;20050;-60
2022/01/21 10:18:20;;;;;;;8.50;4.70;;;13.40;96.90;;;;;;5135392;27;20088;-60
2022/01/21 10:21:13;;;;;;;5.70;4.03;;;13.40;97.10;;;;;;5081236;27;20370;-60
2022/01/21 10:23:42;;;;;;;6.35;4.40;;;13.40;97.30;;;;;;5134943;27;20047;-60
2022/01/21 10:26:18;;;;;;;6.80;4.22;;;13.40;97.30;;;;;;5135549;27;20054;-60
2022/01/21 10:28:54;;;;;;;5.50;3.85;;;13.40;97.50;;;;;;5116874;27;20035;-60
2022/01/21 10:31:24;;;;;;;5.80;3.90;;;13.50;97.50;;;;;;5135219;27;20039;-60
2022/01/21 10:33:56;;;;;;;5.57;4.03;;;13.40;97.20;;;;;;5135159;27;20047;-60
2022/01/21 10:36:31;;;;;;;5.05;3.25;;;13.40;97.00;;;;;;5117348;27;20389;-60
2022/01/21 10:39:11;;;;;;;3.80;2.95;;;13.40;96.90;;;;;;5135273;27;20482;-60
2022/01/21 10:41:44;;;;;;;4.45;3.25;;;13.40;96.70;;;;;;5116349;27;20130;-60
2022/01/21 10:44:17;;;;;;;3.80;2.50;;;13.30;96.50;;;;;;5134832;27;20046;-62
2022/01/21 10:47:08;;;;;;;3.75;2.63;;;13.30;96.10;;;;;;5134768;27;20088;-62
2022/01/21 10:49:43;;;;;;;4.65;2.00;;;13.30;96.20;;;;;;5123527;27;20051;-63
2022/01/21 10:52:15;;;;;;;6.47;2.80;;;13.30;95.70;;;;;;5107793;28;20487;-62
2022/01/21 10:54:45;;;;;;;5.43;2.80;;;13.30;95.80;;;;;;5100780;27;20057;-62
2022/01/21 10:57:17;;;;;;;4.88;2.80;;;13.40;96.00;;;;;;5133810;27;20039;-62
2022/01/21 10:59:53;;;;;;;4.45;2.47;;;13.40;96.00;;;;;;5131029;27;20031;-62
2022/01/21 11:02:49;;;;;;;;;;;13.40;95.70;;;;;;5133748;27;20061;-62
2022/01/21 11:05:37;;;;;;;3.13;2.00;;;13.40;95.20;;;;;;5130859;27;20383;-63
2022/01/21 11:08:12;;;;;;;4.05;2.38;;;13.40;95.20;;;;;;5133006;27;20043;-62
2022/01/21 11:10:49;;;;;;;4.88;3.00;;;13.50;95.20;;;;;;5093172;28;20040;-62
2022/01/21 11:13:19;;;;;;;7.70;4.00;;;13.50;95.40;;;;;;5130845;27;20365;-63
2022/01/21 11:15:54;;;;;;;5.70;3.72;;;13.60;95.30;;;;;;5127881;27;20057;-63
2022/01/21 11:19:05;;;;;;;4.22;2.30;;;13.50;95.40;;;;;;5132365;27;20040;-62
2022/01/21 11:21:39;;;;;;;5.85;3.00;;;13.60;95.20;;;;;;5106021;28;20430;-62
2022/01/21 11:24:08;;;;;;;11.05;6.18;;;13.60;95.20;;;;;;5128661;27;20481;-63
2022/01/21 11:26:37;;;;;;;14.55;9.32;;;13.60;95.30;;;;;;5106869;28;20485;-63
2022/01/21 11:29:06;;;;;;;13.43;7.65;;;13.60;95.30;;;;;;5106044;28;20050;-63
2022/01/21 11:31:34;;;;;;;8.23;6.05;;;13.70;95.40;;;;;;5120846;28;20043;-63
2022/01/21 11:34:08;;;;;;;8.05;5.72;;;13.70;95.50;;;;;;5120257;28;20035;-63
2022/01/21 11:36:36;;;;;;;7.85;5.75;;;13.60;95.50;;;;;;5114258;28;20126;-64
2022/01/21 11:39:05;;;;;;;10.55;5.53;;;13.70;95.30;;;;;;5128697;28;20442;-64
2022/01/21 11:41:35;;;;;;;9.07;5.93;;;13.70;95.50;;;;;;5125794;27;20051;-63
2022/01/21 11:44:05;;;;;;;8.57;4.13;;;13.70;95.50;;;;;;5115047;28;20505;-63
2022/01/21 11:49:06;;;;;;;8.30;4.00;;;13.60;95.60;;;;;;5116106;28;20054;-60
2022/01/21 11:51:37;;;;;;;8.95;5.82;;;13.60;95.60;;;;;;5134410;28;20039;-60
2022/01/21 11:54:13;;;;;;;9.13;5.28;;;13.50;95.60;;;;;;5134653;28;20489;-62
2022/01/21 11:56:55;;;;;;;10.10;6.65;;;13.60;95.70;;;;;;5134103;28;20050;-65
2022/01/21 12:02:19;;;;;;;;;;;13.50;96.00;;;;;;5116689;27;20074;-61
2022/01/21 12:05:00;;;;;;;8.48;4.63;;;13.50;96.30;;;;;;5105519;28;20384;-61
2022/01/21 12:07:33;;;;;;;5.50;3.78;;;13.50;96.40;;;;;;5133999;28;20039;-61
2022/01/21 12:10:03;;;;;;;7.15;3.97;;;13.60;96.40;;;;;;5115328;28;20509;-62
2022/01/21 12:13:08;;;;;;;6.45;4.05;;;13.50;96.10;;;;;;5134081;28;20043;-62
2022/01/21 12:18:38;;;;;;;5.97;3.60;;;13.60;96.10;;;;;;5133679;28;20043;-62
2022/01/21 12:21:25;;;;;;;8.30;4.30;;;13.60;96.40;;;;;;5134050;28;20527;-61
2022/01/21 12:23:55;;;;;;;5.43;2.83;;;13.50;97.10;;;;;;5133953;28;20035;-61
2022/01/21 12:26:27;;;;;;;5.85;2.90;;;13.50;98.10;;;;;;5115700;28;20043;-62
2022/01/21 12:28:58;;;;;;;5.35;3.20;;;13.40;98.00;;;;;;5116851;27;20046;-61
2022/01/21 12:31:54;;;;;;;6.38;3.00;;;13.40;98.20;;;;;;5137729;27;20121;-62
2022/01/21 12:34:26;;;;;;;5.28;2.50;;;13.40;98.40;;;;;;5137498;27;20040;-62
2022/01/21 12:37:07;;;;;;;5.32;2.95;;;13.40;98.10;;;;;;5119406;27;20039;-62
2022/01/21 12:39:47;;;;;;;7.72;3.75;;;13.30;98.10;;;;;;5137285;27;20039;-64
2022/01/21 12:42:21;;;;;;;4.07;2.67;;;13.30;98.40;;;;;;5137148;27;20051;-64
2022/01/21 12:44:52;;;;;;;5.05;2.70;;;13.40;98.60;;;;;;5118957;27;20160;-69
2022/01/21 12:47:39;;;;;;;8.65;3.15;;;13.40;98.10;;;;;;5128071;27;20028;-66
2022/01/21 12:50:20;;;;;;;;;;;13.40;98.40;;;;;;5114008;27;20042;-66
2022/01/21 12:52:55;;;;;;;3.67;2.42;;;13.40;97.80;;;;;;5117891;27;19916;-66
2022/01/21 12:58:38;;;;;;;3.47;2.38;;;13.30;97.80;;;;;;5064292;28;20048;-66
2022/01/21 13:01:08;;;;;;;4.97;2.92;;;13.30;97.70;;;;;;5126642;27;20374;-67
2022/01/21 13:03:53;;;;;;;4.25;2.35;;;13.20;97.70;;;;;;5100648;27;20044;-67
2022/01/21 13:06:36;;;;;;;4.05;2.60;;;13.20;97.70;;;;;;5135276;27;20035;-67
2022/01/21 13:09:08;;;;;;;5.13;2.85;;;13.30;97.70;;;;;;5114983;27;20573;-67
2022/01/21 13:11:41;;;;;;;5.75;2.60;;;13.30;97.70;;;;;;5117219;27;20047;-67
2022/01/21 13:14:26;;;;;;;3.55;2.47;;;13.30;97.50;;;;;;5107875;27;20035;-67
2022/01/21 13:17:00;;;;;;;4.25;2.83;;;13.40;97.50;;;;;;5135535;27;20049;-67
2022/01/21 13:19:48;;;;;;;3.80;2.08;;;13.40;97.40;;;;;;5109280;27;20028;-66
2022/01/21 13:22:16;;;;;;;3.45;1.90;;;13.30;98.40;;;;;;5104750;27;20454;-67
2022/01/21 13:24:58;;;;;;;6.25;2.63;;;13.20;98.80;;;;;;5130950;27;20039;-67
2022/01/21 13:27:27;;;;;;;7.28;4.68;;;13.10;99.40;;;;;;4821781;27;20561;-67
2022/01/21 13:30:00;;;;;;;8.82;4.07;;;13.00;99.80;;;;;;5106335;27;20035;-67
2022/01/21 13:32:27;;;;;;;7.07;2.95;;;13.00;99.90;;;;;;5121070;27;20039;-66
2022/01/21 13:35:12;;;;;;;5.55;2.63;;;12.90;99.90;;;;;;5108994;27;20051;-67
2022/01/21 13:38:12;;;;;;;7.30;2.45;;;12.80;99.90;;;;;;5131459;27;20035;-67
2022/01/21 13:40:52;;;;;;;;;;;12.80;99.90;;;;;;5108179;28;20070;-66
2022/01/21 13:43:26;;;;;;;4.80;2.55;;;12.80;99.90;;;;;;5109778;28;19924;-67
2022/01/21 13:45:59;;;;;;;5.03;2.58;;;12.80;99.90;;;;;;5090406;28;20044;-67
2022/01/21 13:48:29;;;;;;;4.00;2.10;;;12.80;99.90;;;;;;5102378;27;20093;-67
2022/01/21 13:50:58;;;;;;;4.22;2.50;;;12.70;99.90;;;;;;5110809;28;20179;-68
2022/01/21 13:53:27;;;;;;;8.60;2.80;;;12.80;99.90;;;;;;5092133;28;20048;-67
2022/01/21 13:55:57;;;;;;;8.20;2.85;;;12.70;99.90;;;;;;5108044;28;20396;-68
2022/01/21 13:58:29;;;;;;;7.15;3.00;;;12.80;99.90;;;;;;5091446;28;20094;-67
2022/01/21 14:00:56;;;;;;;4.63;3.22;;;12.70;99.90;;;;;;5074166;28;20524;-67
2022/01/21 14:03:25;;;;;;;5.45;2.22;;;12.70;99.90;;;;;;5109323;28;20070;-68
2022/01/21 14:06:02;;;;;;;3.75;2.40;;;12.60;99.90;;;;;;5094960;28;20082;-68
2022/01/21 14:08:36;;;;;;;3.50;2.25;;;12.50;99.90;;;;;;5094648;28;20046;-68